sensor_id;sensor_type;location;lat;lon;timestamp;P1;durP1;ratioP1;P2;durP2;ratioP2
59109;SDS011;44895;47.438;18.978;2023-09-19T00:00:43;11.27;;;7.28;;
59109;SDS011;44895;47.438;18.978;2023-09-19T00:03:48;13.10;;;6.18;;
59109;SDS011;44895;47.438;18.978;2023-09-19T00:06:52;11.43;;;6.05;;
59109;SDS011;44895;47.438;18.978;2023-09-19T00:09:57;19.48;;;6.47;;
59109;SDS011;44895;47.438;18.978;2023-09-19T00:13:02;11.27;;;6.28;;
59109;SDS011;44895;47.438;18.978;2023-09-19T00:16:10;11.35;;;5.80;;
59109;SDS011;44895;47.438;18.978;2023-09-19T00:19:15;13.02;;;7.15;;
59109;SDS011;44895;47.438;18.978;2023-09-19T00:22:19;10.82;;;5.78;;
59109;SDS011;44895;47.438;18.978;2023-09-19T00:25:24;15.68;;;6.30;;
59109;SDS011;44895;47.438;18.978;2023-09-19T00:28:29;10.95;;;6.22;;
59109;SDS011;44895;47.438;18.978;2023-09-19T00:31:35;11.90;;;6.60;;
59109;SDS011;44895;47.438;18.978;2023-09-19T00:34:40;14.55;;;7.30;;
59109;SDS011;44895;47.438;18.978;2023-09-19T00:37:48;11.30;;;6.95;;
59109;SDS011;44895;47.438;18.978;2023-09-19T00:40:52;9.10;;;5.60;;
59109;SDS011;44895;47.438;18.978;2023-09-19T00:43:56;12.70;;;6.05;;
59109;SDS011;44895;47.438;18.978;2023-09-19T00:47:01;17.42;;;6.28;;
59109;SDS011;44895;47.438;18.978;2023-09-19T00:50:06;20.13;;;7.50;;
59109;SDS011;44895;47.438;18.978;2023-09-19T00:53:14;11.52;;;6.95;;
59109;SDS011;44895;47.438;18.978;2023-09-19T00:56:21;13.23;;;7.10;;
59109;SDS011;44895;47.438;18.978;2023-09-19T00:59:26;14.73;;;6.60;;
59109;SDS011;44895;47.438;18.978;2023-09-19T01:02:34;11.00;;;7.57;;
59109;SDS011;44895;47.438;18.978;2023-09-19T01:05:38;18.48;;;7.70;;
59109;SDS011;44895;47.438;18.978;2023-09-19T01:08:43;13.50;;;6.88;;
59109;SDS011;44895;47.438;18.978;2023-09-19T01:11:48;16.23;;;6.70;;
59109;SDS011;44895;47.438;18.978;2023-09-19T01:15:06;17.30;;;6.75;;
59109;SDS011;44895;47.438;18.978;2023-09-19T01:21:34;15.40;;;7.47;;
59109;SDS011;44895;47.438;18.978;2023-09-19T01:31:43;13.00;;;7.18;;
59109;SDS011;44895;47.438;18.978;2023-09-19T01:34:50;15.68;;;7.43;;
59109;SDS011;44895;47.438;18.978;2023-09-19T01:37:56;14.02;;;8.45;;
59109;SDS011;44895;47.438;18.978;2023-09-19T01:41:01;17.55;;;8.00;;
59109;SDS011;44895;47.438;18.978;2023-09-19T01:47:52;13.85;;;8.93;;
59109;SDS011;44895;47.438;18.978;2023-09-19T01:51:00;14.55;;;8.75;;
59109;SDS011;44895;47.438;18.978;2023-09-19T01:54:16;13.90;;;8.02;;
59109;SDS011;44895;47.438;18.978;2023-09-19T01:57:30;16.92;;;7.90;;
59109;SDS011;44895;47.438;18.978;2023-09-19T02:00:40;16.08;;;8.80;;
59109;SDS011;44895;47.438;18.978;2023-09-19T02:03:47;18.00;;;8.77;;
59109;SDS011;44895;47.438;18.978;2023-09-19T02:06:52;27.50;;;7.80;;
59109;SDS011;44895;47.438;18.978;2023-09-19T02:10:00;13.32;;;8.55;;
59109;SDS011;44895;47.438;18.978;2023-09-19T02:13:04;12.65;;;7.57;;
59109;SDS011;44895;47.438;18.978;2023-09-19T02:16:09;17.80;;;10.07;;
59109;SDS011;44895;47.438;18.978;2023-09-19T02:19:14;11.20;;;8.40;;
59109;SDS011;44895;47.438;18.978;2023-09-19T02:22:18;19.63;;;7.90;;
59109;SDS011;44895;47.438;18.978;2023-09-19T02:25:22;11.60;;;7.50;;
59109;SDS011;44895;47.438;18.978;2023-09-19T02:28:26;19.80;;;8.45;;
59109;SDS011;44895;47.438;18.978;2023-09-19T02:31:33;15.38;;;8.75;;
59109;SDS011;44895;47.438;18.978;2023-09-19T02:34:37;17.73;;;8.85;;
59109;SDS011;44895;47.438;18.978;2023-09-19T02:37:43;12.10;;;8.65;;
59109;SDS011;44895;47.438;18.978;2023-09-19T02:40:48;34.35;;;9.15;;
59109;SDS011;44895;47.438;18.978;2023-09-19T02:43:52;11.00;;;7.90;;
59109;SDS011;44895;47.438;18.978;2023-09-19T02:46:57;13.65;;;9.25;;
59109;SDS011;44895;47.438;18.978;2023-09-19T02:50:01;11.48;;;8.32;;
59109;SDS011;44895;47.438;18.978;2023-09-19T02:53:07;14.40;;;8.45;;
59109;SDS011;44895;47.438;18.978;2023-09-19T02:56:11;14.35;;;6.57;;
59109;SDS011;44895;47.438;18.978;2023-09-19T02:59:17;12.10;;;8.50;;
59109;SDS011;44895;47.438;18.978;2023-09-19T03:02:23;12.85;;;8.25;;
59109;SDS011;44895;47.438;18.978;2023-09-19T03:05:28;13.93;;;7.03;;
59109;SDS011;44895;47.438;18.978;2023-09-19T03:08:35;12.40;;;8.53;;
59109;SDS011;44895;47.438;18.978;2023-09-19T03:11:42;14.55;;;9.63;;
59109;SDS011;44895;47.438;18.978;2023-09-19T03:14:47;24.88;;;8.38;;
59109;SDS011;44895;47.438;18.978;2023-09-19T03:17:52;12.90;;;8.23;;
59109;SDS011;44895;47.438;18.978;2023-09-19T03:20:59;16.98;;;7.97;;
59109;SDS011;44895;47.438;18.978;2023-09-19T03:24:04;16.08;;;8.43;;
59109;SDS011;44895;47.438;18.978;2023-09-19T03:27:12;17.30;;;8.60;;
59109;SDS011;44895;47.438;18.978;2023-09-19T03:30:17;13.10;;;8.52;;
59109;SDS011;44895;47.438;18.978;2023-09-19T03:33:22;17.92;;;8.40;;
59109;SDS011;44895;47.438;18.978;2023-09-19T03:36:28;13.02;;;7.80;;
59109;SDS011;44895;47.438;18.978;2023-09-19T03:39:33;17.80;;;8.17;;
59109;SDS011;44895;47.438;18.978;2023-09-19T03:42:40;18.50;;;8.10;;
59109;SDS011;44895;47.438;18.978;2023-09-19T03:45:48;12.40;;;8.23;;
59109;SDS011;44895;47.438;18.978;2023-09-19T03:48:55;14.13;;;7.88;;
59109;SDS011;44895;47.438;18.978;2023-09-19T03:52:00;13.32;;;7.93;;
59109;SDS011;44895;47.438;18.978;2023-09-19T03:55:04;16.25;;;8.90;;
59109;SDS011;44895;47.438;18.978;2023-09-19T03:58:09;15.23;;;8.43;;
59109;SDS011;44895;47.438;18.978;2023-09-19T04:01:13;23.83;;;8.85;;
59109;SDS011;44895;47.438;18.978;2023-09-19T04:04:17;13.25;;;8.93;;
59109;SDS011;44895;47.438;18.978;2023-09-19T04:07:22;14.15;;;9.05;;
59109;SDS011;44895;47.438;18.978;2023-09-19T04:10:26;18.60;;;9.27;;
59109;SDS011;44895;47.438;18.978;2023-09-19T04:13:31;13.60;;;8.45;;
59109;SDS011;44895;47.438;18.978;2023-09-19T04:16:35;20.35;;;8.52;;
59109;SDS011;44895;47.438;18.978;2023-09-19T04:19:39;13.50;;;7.50;;
59109;SDS011;44895;47.438;18.978;2023-09-19T04:22:44;18.38;;;8.88;;
59109;SDS011;44895;47.438;18.978;2023-09-19T04:25:49;12.02;;;8.93;;
59109;SDS011;44895;47.438;18.978;2023-09-19T04:28:54;11.32;;;8.80;;
59109;SDS011;44895;47.438;18.978;2023-09-19T04:31:59;15.50;;;7.90;;
59109;SDS011;44895;47.438;18.978;2023-09-19T04:35:04;13.00;;;8.57;;
59109;SDS011;44895;47.438;18.978;2023-09-19T04:38:10;16.15;;;6.10;;
59109;SDS011;44895;47.438;18.978;2023-09-19T04:41:14;10.85;;;4.13;;
59109;SDS011;44895;47.438;18.978;2023-09-19T04:44:19;8.48;;;2.95;;
59109;SDS011;44895;47.438;18.978;2023-09-19T04:47:23;6.32;;;2.47;;
59109;SDS011;44895;47.438;18.978;2023-09-19T04:50:28;4.15;;;1.80;;
59109;SDS011;44895;47.438;18.978;2023-09-19T04:53:33;2.92;;;1.33;;
59109;SDS011;44895;47.438;18.978;2023-09-19T04:56:37;5.43;;;1.67;;
59109;SDS011;44895;47.438;18.978;2023-09-19T04:59:44;4.15;;;1.55;;
59109;SDS011;44895;47.438;18.978;2023-09-19T05:02:51;4.15;;;1.38;;
59109;SDS011;44895;47.438;18.978;2023-09-19T05:05:56;10.10;;;1.70;;
59109;SDS011;44895;47.438;18.978;2023-09-19T05:09:00;2.75;;;1.17;;
59109;SDS011;44895;47.438;18.978;2023-09-19T05:12:03;3.72;;;1.40;;
59109;SDS011;44895;47.438;18.978;2023-09-19T05:15:08;1.75;;;0.60;;
59109;SDS011;44895;47.438;18.978;2023-09-19T05:18:12;3.42;;;1.48;;
59109;SDS011;44895;47.438;18.978;2023-09-19T05:21:16;5.88;;;1.63;;
59109;SDS011;44895;47.438;18.978;2023-09-19T05:24:21;1.77;;;0.60;;
59109;SDS011;44895;47.438;18.978;2023-09-19T05:27:27;1.10;;;0.60;;
59109;SDS011;44895;47.438;18.978;2023-09-19T05:30:31;1.95;;;0.68;;
59109;SDS011;44895;47.438;18.978;2023-09-19T05:33:35;5.10;;;0.90;;
59109;SDS011;44895;47.438;18.978;2023-09-19T05:36:40;3.35;;;1.08;;
59109;SDS011;44895;47.438;18.978;2023-09-19T05:39:45;8.75;;;1.20;;
59109;SDS011;44895;47.438;18.978;2023-09-19T05:42:48;6.13;;;0.95;;
59109;SDS011;44895;47.438;18.978;2023-09-19T05:45:54;2.58;;;0.75;;
59109;SDS011;44895;47.438;18.978;2023-09-19T05:49:00;2.38;;;0.60;;
59109;SDS011;44895;47.438;18.978;2023-09-19T05:52:07;2.45;;;0.80;;
59109;SDS011;44895;47.438;18.978;2023-09-19T05:58:15;2.08;;;1.08;;
59109;SDS011;44895;47.438;18.978;2023-09-19T06:01:20;4.05;;;0.90;;
59109;SDS011;44895;47.438;18.978;2023-09-19T06:04:25;7.43;;;1.10;;
59109;SDS011;44895;47.438;18.978;2023-09-19T06:07:28;1.33;;;0.65;;
59109;SDS011;44895;47.438;18.978;2023-09-19T06:10:39;3.00;;;0.95;;
59109;SDS011;44895;47.438;18.978;2023-09-19T06:13:44;2.63;;;0.80;;
59109;SDS011;44895;47.438;18.978;2023-09-19T06:16:50;2.08;;;0.77;;
59109;SDS011;44895;47.438;18.978;2023-09-19T06:19:53;2.47;;;0.90;;
59109;SDS011;44895;47.438;18.978;2023-09-19T06:22:59;3.00;;;0.60;;
59109;SDS011;44895;47.438;18.978;2023-09-19T06:26:06;2.60;;;0.75;;
59109;SDS011;44895;47.438;18.978;2023-09-19T06:29:10;3.30;;;0.80;;
59109;SDS011;44895;47.438;18.978;2023-09-19T06:32:14;1.38;;;0.50;;
59109;SDS011;44895;47.438;18.978;2023-09-19T06:35:18;1.25;;;0.75;;
59109;SDS011;44895;47.438;18.978;2023-09-19T06:38:22;1.00;;;0.43;;
59109;SDS011;44895;47.438;18.978;2023-09-19T06:41:27;1.85;;;0.73;;
59109;SDS011;44895;47.438;18.978;2023-09-19T06:44:31;1.75;;;0.40;;
59109;SDS011;44895;47.438;18.978;2023-09-19T06:47:35;3.70;;;0.75;;
59109;SDS011;44895;47.438;18.978;2023-09-19T06:50:39;3.00;;;0.93;;
59109;SDS011;44895;47.438;18.978;2023-09-19T06:53:44;1.02;;;0.57;;
59109;SDS011;44895;47.438;18.978;2023-09-19T06:56:48;2.20;;;1.02;;
59109;SDS011;44895;47.438;18.978;2023-09-19T06:59:53;2.47;;;1.08;;
59109;SDS011;44895;47.438;18.978;2023-09-19T07:03:00;2.42;;;0.88;;
59109;SDS011;44895;47.438;18.978;2023-09-19T07:06:07;3.22;;;1.10;;
59109;SDS011;44895;47.438;18.978;2023-09-19T07:09:12;2.42;;;0.60;;
59109;SDS011;44895;47.438;18.978;2023-09-19T07:12:16;2.35;;;0.95;;
59109;SDS011;44895;47.438;18.978;2023-09-19T07:15:21;1.20;;;0.60;;
59109;SDS011;44895;47.438;18.978;2023-09-19T07:18:28;4.22;;;1.10;;
59109;SDS011;44895;47.438;18.978;2023-09-19T07:21:33;3.70;;;0.95;;
59109;SDS011;44895;47.438;18.978;2023-09-19T07:24:39;2.95;;;0.82;;
59109;SDS011;44895;47.438;18.978;2023-09-19T07:27:43;2.97;;;1.00;;
59109;SDS011;44895;47.438;18.978;2023-09-19T07:30:47;6.93;;;0.70;;
59109;SDS011;44895;47.438;18.978;2023-09-19T07:33:51;2.15;;;0.63;;
59109;SDS011;44895;47.438;18.978;2023-09-19T07:36:55;3.17;;;0.65;;
59109;SDS011;44895;47.438;18.978;2023-09-19T07:40:00;3.72;;;1.17;;
59109;SDS011;44895;47.438;18.978;2023-09-19T07:43:04;2.65;;;0.82;;
59109;SDS011;44895;47.438;18.978;2023-09-19T07:46:10;3.85;;;1.10;;
59109;SDS011;44895;47.438;18.978;2023-09-19T07:49:14;3.72;;;0.82;;
59109;SDS011;44895;47.438;18.978;2023-09-19T07:52:21;9.13;;;1.00;;
59109;SDS011;44895;47.438;18.978;2023-09-19T07:55:26;2.78;;;0.73;;
59109;SDS011;44895;47.438;18.978;2023-09-19T07:58:31;2.15;;;0.82;;
59109;SDS011;44895;47.438;18.978;2023-09-19T08:01:34;3.13;;;1.38;;
59109;SDS011;44895;47.438;18.978;2023-09-19T08:04:39;3.95;;;1.17;;
59109;SDS011;44895;47.438;18.978;2023-09-19T08:07:44;4.95;;;1.83;;
59109;SDS011;44895;47.438;18.978;2023-09-19T08:10:55;5.47;;;1.42;;
59109;SDS011;44895;47.438;18.978;2023-09-19T08:14:00;2.72;;;0.90;;
59109;SDS011;44895;47.438;18.978;2023-09-19T08:17:04;5.63;;;1.42;;
59109;SDS011;44895;47.438;18.978;2023-09-19T08:20:09;6.28;;;1.70;;
59109;SDS011;44895;47.438;18.978;2023-09-19T08:23:21;3.97;;;1.77;;
59109;SDS011;44895;47.438;18.978;2023-09-19T08:26:24;4.30;;;1.17;;
59109;SDS011;44895;47.438;18.978;2023-09-19T08:29:28;3.78;;;0.98;;
59109;SDS011;44895;47.438;18.978;2023-09-19T08:32:33;2.67;;;1.00;;
59109;SDS011;44895;47.438;18.978;2023-09-19T08:35:37;8.48;;;1.45;;
59109;SDS011;44895;47.438;18.978;2023-09-19T08:38:43;4.88;;;1.67;;
59109;SDS011;44895;47.438;18.978;2023-09-19T08:41:47;4.50;;;1.13;;
59109;SDS011;44895;47.438;18.978;2023-09-19T08:44:51;4.03;;;1.25;;
59109;SDS011;44895;47.438;18.978;2023-09-19T08:51:21;4.57;;;0.90;;
59109;SDS011;44895;47.438;18.978;2023-09-19T08:54:51;3.80;;;1.33;;
59109;SDS011;44895;47.438;18.978;2023-09-19T08:58:01;3.85;;;0.98;;
59109;SDS011;44895;47.438;18.978;2023-09-19T09:01:06;4.93;;;1.35;;
59109;SDS011;44895;47.438;18.978;2023-09-19T09:04:12;6.05;;;1.95;;
59109;SDS011;44895;47.438;18.978;2023-09-19T09:07:17;4.93;;;1.63;;
59109;SDS011;44895;47.438;18.978;2023-09-19T09:10:24;3.28;;;1.38;;
59109;SDS011;44895;47.438;18.978;2023-09-19T09:13:28;3.92;;;1.50;;
59109;SDS011;44895;47.438;18.978;2023-09-19T09:16:34;5.43;;;2.28;;
59109;SDS011;44895;47.438;18.978;2023-09-19T09:19:38;5.15;;;2.10;;
59109;SDS011;44895;47.438;18.978;2023-09-19T09:22:52;5.28;;;2.47;;
59109;SDS011;44895;47.438;18.978;2023-09-19T09:25:58;5.03;;;1.92;;
59109;SDS011;44895;47.438;18.978;2023-09-19T09:29:06;6.07;;;2.63;;
59109;SDS011;44895;47.438;18.978;2023-09-19T09:32:19;5.80;;;2.70;;
59109;SDS011;44895;47.438;18.978;2023-09-19T09:35:25;5.97;;;2.38;;
59109;SDS011;44895;47.438;18.978;2023-09-19T09:38:42;6.65;;;2.35;;
59109;SDS011;44895;47.438;18.978;2023-09-19T09:41:48;6.45;;;2.40;;
59109;SDS011;44895;47.438;18.978;2023-09-19T09:45:07;5.80;;;2.67;;
59109;SDS011;44895;47.438;18.978;2023-09-19T09:48:21;11.15;;;3.72;;
59109;SDS011;44895;47.438;18.978;2023-09-19T09:51:35;8.32;;;3.45;;
59109;SDS011;44895;47.438;18.978;2023-09-19T09:54:58;6.10;;;2.92;;
59109;SDS011;44895;47.438;18.978;2023-09-19T09:58:17;7.03;;;3.05;;
59109;SDS011;44895;47.438;18.978;2023-09-19T10:01:45;8.75;;;3.25;;
59109;SDS011;44895;47.438;18.978;2023-09-19T10:04:51;6.57;;;3.20;;
59109;SDS011;44895;47.438;18.978;2023-09-19T10:08:10;6.85;;;3.28;;
59109;SDS011;44895;47.438;18.978;2023-09-19T10:11:16;6.95;;;3.17;;
59109;SDS011;44895;47.438;18.978;2023-09-19T10:14:20;7.30;;;3.00;;
59109;SDS011;44895;47.438;18.978;2023-09-19T10:17:28;6.35;;;3.42;;
59109;SDS011;44895;47.438;18.978;2023-09-19T10:20:35;4.97;;;3.03;;
59109;SDS011;44895;47.438;18.978;2023-09-19T10:23:42;10.20;;;4.07;;
59109;SDS011;44895;47.438;18.978;2023-09-19T10:26:48;6.97;;;3.63;;
59109;SDS011;44895;47.438;18.978;2023-09-19T10:29:54;10.45;;;4.15;;
59109;SDS011;44895;47.438;18.978;2023-09-19T10:33:01;5.85;;;3.08;;
59109;SDS011;44895;47.438;18.978;2023-09-19T10:36:07;6.60;;;4.00;;
59109;SDS011;44895;47.438;18.978;2023-09-19T10:39:14;7.05;;;3.08;;
59109;SDS011;44895;47.438;18.978;2023-09-19T10:42:23;8.00;;;3.70;;
59109;SDS011;44895;47.438;18.978;2023-09-19T10:45:33;6.05;;;3.75;;
59109;SDS011;44895;47.438;18.978;2023-09-19T10:48:39;7.03;;;3.55;;
59109;SDS011;44895;47.438;18.978;2023-09-19T10:51:47;7.15;;;3.60;;
59109;SDS011;44895;47.438;18.978;2023-09-19T10:54:56;7.05;;;2.47;;
59109;SDS011;44895;47.438;18.978;2023-09-19T11:01:18;4.97;;;2.75;;
59109;SDS011;44895;47.438;18.978;2023-09-19T11:04:27;4.97;;;1.98;;
59109;SDS011;44895;47.438;18.978;2023-09-19T11:07:48;6.28;;;2.83;;
59109;SDS011;44895;47.438;18.978;2023-09-19T11:11:03;5.50;;;2.55;;
59109;SDS011;44895;47.438;18.978;2023-09-19T11:14:43;4.88;;;1.80;;
59109;SDS011;44895;47.438;18.978;2023-09-19T11:17:48;4.50;;;1.70;;
59109;SDS011;44895;47.438;18.978;2023-09-19T11:21:24;4.68;;;1.65;;
59109;SDS011;44895;47.438;18.978;2023-09-19T11:24:37;5.15;;;2.13;;
59109;SDS011;44895;47.438;18.978;2023-09-19T11:28:06;3.85;;;1.48;;
59109;SDS011;44895;47.438;18.978;2023-09-19T11:32:03;3.50;;;1.52;;
59109;SDS011;44895;47.438;18.978;2023-09-19T11:34:48;4.03;;;1.60;;
59109;SDS011;44895;47.438;18.978;2023-09-19T11:47:33;2.78;;;1.17;;
59109;SDS011;44895;47.438;18.978;2023-09-19T11:50:45;5.22;;;1.35;;
59109;SDS011;44895;47.438;18.978;2023-09-19T11:53:51;3.40;;;1.10;;
59109;SDS011;44895;47.438;18.978;2023-09-19T11:56:56;4.15;;;0.90;;
59109;SDS011;44895;47.438;18.978;2023-09-19T12:00:00;5.25;;;1.60;;
59109;SDS011;44895;47.438;18.978;2023-09-19T12:03:16;4.15;;;1.48;;
59109;SDS011;44895;47.438;18.978;2023-09-19T12:06:23;10.48;;;1.58;;
59109;SDS011;44895;47.438;18.978;2023-09-19T12:09:28;3.50;;;1.58;;
59109;SDS011;44895;47.438;18.978;2023-09-19T12:12:32;4.95;;;1.63;;
59109;SDS011;44895;47.438;18.978;2023-09-19T12:15:37;3.35;;;1.48;;
59109;SDS011;44895;47.438;18.978;2023-09-19T12:18:44;7.47;;;2.20;;
59109;SDS011;44895;47.438;18.978;2023-09-19T12:21:56;2.83;;;1.00;;
59109;SDS011;44895;47.438;18.978;2023-09-19T12:25:06;3.83;;;1.40;;
59109;SDS011;44895;47.438;18.978;2023-09-19T12:28:10;3.22;;;1.40;;
59109;SDS011;44895;47.438;18.978;2023-09-19T12:31:15;4.72;;;1.08;;
59109;SDS011;44895;47.438;18.978;2023-09-19T12:34:25;5.32;;;1.60;;
59109;SDS011;44895;47.438;18.978;2023-09-19T12:37:30;4.70;;;1.52;;
59109;SDS011;44895;47.438;18.978;2023-09-19T12:40:34;3.97;;;1.33;;
59109;SDS011;44895;47.438;18.978;2023-09-19T12:46:45;4.93;;;1.25;;
59109;SDS011;44895;47.438;18.978;2023-09-19T12:53:25;6.30;;;1.55;;
59109;SDS011;44895;47.438;18.978;2023-09-19T12:56:39;4.38;;;1.60;;
59109;SDS011;44895;47.438;18.978;2023-09-19T12:59:48;3.42;;;1.30;;
59109;SDS011;44895;47.438;18.978;2023-09-19T13:03:15;3.70;;;1.48;;
59109;SDS011;44895;47.438;18.978;2023-09-19T13:06:36;5.43;;;2.25;;
59109;SDS011;44895;47.438;18.978;2023-09-19T13:10:01;4.28;;;1.42;;
59109;SDS011;44895;47.438;18.978;2023-09-19T13:13:23;3.53;;;1.05;;
59109;SDS011;44895;47.438;18.978;2023-09-19T13:16:31;5.55;;;1.60;;
59109;SDS011;44895;47.438;18.978;2023-09-19T13:19:39;6.28;;;1.85;;
59109;SDS011;44895;47.438;18.978;2023-09-19T13:22:57;3.05;;;1.50;;
59109;SDS011;44895;47.438;18.978;2023-09-19T13:26:04;5.32;;;1.35;;
59109;SDS011;44895;47.438;18.978;2023-09-19T13:29:09;3.08;;;1.30;;
59109;SDS011;44895;47.438;18.978;2023-09-19T13:32:13;3.42;;;1.42;;
59109;SDS011;44895;47.438;18.978;2023-09-19T13:35:17;3.83;;;0.95;;
59109;SDS011;44895;47.438;18.978;2023-09-19T13:38:22;4.13;;;1.63;;
59109;SDS011;44895;47.438;18.978;2023-09-19T13:41:26;3.92;;;1.73;;
59109;SDS011;44895;47.438;18.978;2023-09-19T13:44:30;3.45;;;1.50;;
59109;SDS011;44895;47.438;18.978;2023-09-19T13:47:33;4.65;;;1.30;;
59109;SDS011;44895;47.438;18.978;2023-09-19T13:50:40;5.60;;;1.98;;
59109;SDS011;44895;47.438;18.978;2023-09-19T13:53:47;5.47;;;1.63;;
59109;SDS011;44895;47.438;18.978;2023-09-19T13:56:51;10.95;;;1.58;;
59109;SDS011;44895;47.438;18.978;2023-09-19T13:59:55;3.38;;;1.50;;
59109;SDS011;44895;47.438;18.978;2023-09-19T14:02:59;3.45;;;1.33;;
59109;SDS011;44895;47.438;18.978;2023-09-19T14:06:05;4.05;;;1.50;;
59109;SDS011;44895;47.438;18.978;2023-09-19T14:09:10;3.80;;;1.40;;
59109;SDS011;44895;47.438;18.978;2023-09-19T14:12:15;5.28;;;1.55;;
59109;SDS011;44895;47.438;18.978;2023-09-19T14:15:20;5.93;;;1.52;;
59109;SDS011;44895;47.438;18.978;2023-09-19T14:18:36;5.07;;;1.75;;
59109;SDS011;44895;47.438;18.978;2023-09-19T14:21:40;5.05;;;1.45;;
59109;SDS011;44895;47.438;18.978;2023-09-19T14:24:44;6.13;;;1.63;;
59109;SDS011;44895;47.438;18.978;2023-09-19T14:27:48;8.02;;;1.70;;
59109;SDS011;44895;47.438;18.978;2023-09-19T14:30:52;3.50;;;1.40;;
59109;SDS011;44895;47.438;18.978;2023-09-19T14:33:57;5.10;;;1.58;;
59109;SDS011;44895;47.438;18.978;2023-09-19T14:37:02;4.32;;;1.77;;
59109;SDS011;44895;47.438;18.978;2023-09-19T14:40:08;4.32;;;1.50;;
59109;SDS011;44895;47.438;18.978;2023-09-19T14:43:12;4.85;;;1.52;;
59109;SDS011;44895;47.438;18.978;2023-09-19T14:46:16;7.82;;;2.10;;
59109;SDS011;44895;47.438;18.978;2023-09-19T14:49:21;6.00;;;2.00;;
59109;SDS011;44895;47.438;18.978;2023-09-19T14:52:25;6.38;;;2.58;;
59109;SDS011;44895;47.438;18.978;2023-09-19T14:55:31;6.30;;;2.15;;
59109;SDS011;44895;47.438;18.978;2023-09-19T14:58:39;5.78;;;2.30;;
59109;SDS011;44895;47.438;18.978;2023-09-19T15:01:45;3.15;;;1.30;;
59109;SDS011;44895;47.438;18.978;2023-09-19T15:04:49;4.88;;;1.65;;
59109;SDS011;44895;47.438;18.978;2023-09-19T15:07:55;3.95;;;1.58;;
59109;SDS011;44895;47.438;18.978;2023-09-19T15:11:04;4.65;;;1.73;;
59109;SDS011;44895;47.438;18.978;2023-09-19T15:14:09;3.22;;;1.27;;
59109;SDS011;44895;47.438;18.978;2023-09-19T15:17:13;4.90;;;1.45;;
59109;SDS011;44895;47.438;18.978;2023-09-19T15:20:18;3.80;;;1.15;;
59109;SDS011;44895;47.438;18.978;2023-09-19T15:23:23;3.08;;;1.10;;
59109;SDS011;44895;47.438;18.978;2023-09-19T15:26:28;5.28;;;1.98;;
59109;SDS011;44895;47.438;18.978;2023-09-19T15:29:32;3.42;;;1.50;;
59109;SDS011;44895;47.438;18.978;2023-09-19T15:32:36;4.75;;;1.48;;
59109;SDS011;44895;47.438;18.978;2023-09-19T15:35:41;3.00;;;1.05;;
59109;SDS011;44895;47.438;18.978;2023-09-19T15:42:10;4.57;;;1.92;;
59109;SDS011;44895;47.438;18.978;2023-09-19T15:45:15;4.10;;;1.30;;
59109;SDS011;44895;47.438;18.978;2023-09-19T15:48:20;3.22;;;1.80;;
59109;SDS011;44895;47.438;18.978;2023-09-19T15:51:25;4.72;;;1.98;;
59109;SDS011;44895;47.438;18.978;2023-09-19T15:54:30;6.75;;;2.20;;
59109;SDS011;44895;47.438;18.978;2023-09-19T15:57:37;4.10;;;1.35;;
59109;SDS011;44895;47.438;18.978;2023-09-19T16:00:42;2.95;;;1.35;;
59109;SDS011;44895;47.438;18.978;2023-09-19T16:03:47;5.53;;;1.40;;
59109;SDS011;44895;47.438;18.978;2023-09-19T16:06:52;2.90;;;1.13;;
59109;SDS011;44895;47.438;18.978;2023-09-19T16:09:56;5.20;;;1.67;;
59109;SDS011;44895;47.438;18.978;2023-09-19T16:13:01;4.18;;;1.38;;
59109;SDS011;44895;47.438;18.978;2023-09-19T16:16:07;4.28;;;1.10;;
59109;SDS011;44895;47.438;18.978;2023-09-19T16:19:16;6.13;;;1.25;;
59109;SDS011;44895;47.438;18.978;2023-09-19T16:22:22;4.70;;;1.55;;
59109;SDS011;44895;47.438;18.978;2023-09-19T16:25:27;3.28;;;1.60;;
59109;SDS011;44895;47.438;18.978;2023-09-19T16:28:31;3.90;;;1.27;;
59109;SDS011;44895;47.438;18.978;2023-09-19T16:31:38;4.93;;;1.40;;
59109;SDS011;44895;47.438;18.978;2023-09-19T16:34:42;2.67;;;1.00;;
59109;SDS011;44895;47.438;18.978;2023-09-19T16:37:47;3.95;;;1.58;;
59109;SDS011;44895;47.438;18.978;2023-09-19T16:40:55;3.40;;;1.30;;
59109;SDS011;44895;47.438;18.978;2023-09-19T16:44:04;8.70;;;1.63;;
59109;SDS011;44895;47.438;18.978;2023-09-19T16:47:11;4.63;;;1.55;;
59109;SDS011;44895;47.438;18.978;2023-09-19T16:50:16;3.28;;;1.48;;
59109;SDS011;44895;47.438;18.978;2023-09-19T16:53:20;7.35;;;2.45;;
59109;SDS011;44895;47.438;18.978;2023-09-19T16:56:25;10.02;;;2.15;;
59109;SDS011;44895;47.438;18.978;2023-09-19T16:59:31;5.00;;;2.65;;
59109;SDS011;44895;47.438;18.978;2023-09-19T17:02:35;6.72;;;1.73;;
59109;SDS011;44895;47.438;18.978;2023-09-19T17:05:40;6.88;;;2.40;;
59109;SDS011;44895;47.438;18.978;2023-09-19T17:08:46;7.55;;;2.70;;
59109;SDS011;44895;47.438;18.978;2023-09-19T17:11:51;5.97;;;1.95;;
59109;SDS011;44895;47.438;18.978;2023-09-19T17:14:56;3.30;;;1.48;;
59109;SDS011;44895;47.438;18.978;2023-09-19T17:18:00;4.03;;;1.73;;
59109;SDS011;44895;47.438;18.978;2023-09-19T17:21:05;6.20;;;2.05;;
59109;SDS011;44895;47.438;18.978;2023-09-19T17:24:12;3.63;;;1.50;;
59109;SDS011;44895;47.438;18.978;2023-09-19T17:27:16;4.40;;;1.85;;
59109;SDS011;44895;47.438;18.978;2023-09-19T17:30:22;5.18;;;1.73;;
59109;SDS011;44895;47.438;18.978;2023-09-19T17:33:30;6.65;;;1.65;;
59109;SDS011;44895;47.438;18.978;2023-09-19T17:36:35;6.68;;;1.80;;
59109;SDS011;44895;47.438;18.978;2023-09-19T17:39:40;3.78;;;1.73;;
59109;SDS011;44895;47.438;18.978;2023-09-19T17:42:44;3.00;;;1.35;;
59109;SDS011;44895;47.438;18.978;2023-09-19T17:45:51;4.82;;;2.13;;
59109;SDS011;44895;47.438;18.978;2023-09-19T17:48:58;4.85;;;1.70;;
59109;SDS011;44895;47.438;18.978;2023-09-19T17:52:04;3.35;;;1.58;;
59109;SDS011;44895;47.438;18.978;2023-09-19T17:55:11;10.90;;;2.30;;
59109;SDS011;44895;47.438;18.978;2023-09-19T17:58:21;11.05;;;1.75;;
59109;SDS011;44895;47.438;18.978;2023-09-19T18:01:26;5.07;;;1.55;;
59109;SDS011;44895;47.438;18.978;2023-09-19T18:04:32;5.80;;;1.60;;
59109;SDS011;44895;47.438;18.978;2023-09-19T18:07:39;5.35;;;1.80;;
59109;SDS011;44895;47.438;18.978;2023-09-19T18:10:49;3.90;;;1.70;;
59109;SDS011;44895;47.438;18.978;2023-09-19T18:13:57;6.93;;;2.17;;
59109;SDS011;44895;47.438;18.978;2023-09-19T18:17:03;5.65;;;2.05;;
59109;SDS011;44895;47.438;18.978;2023-09-19T18:20:09;8.52;;;2.63;;
59109;SDS011;44895;47.438;18.978;2023-09-19T18:23:16;4.38;;;2.13;;
59109;SDS011;44895;47.438;18.978;2023-09-19T18:26:23;6.45;;;2.25;;
59109;SDS011;44895;47.438;18.978;2023-09-19T18:29:30;4.50;;;1.90;;
59109;SDS011;44895;47.438;18.978;2023-09-19T18:32:35;7.10;;;2.65;;
59109;SDS011;44895;47.438;18.978;2023-09-19T18:35:42;9.73;;;2.53;;
59109;SDS011;44895;47.438;18.978;2023-09-19T18:38:47;5.82;;;2.80;;
59109;SDS011;44895;47.438;18.978;2023-09-19T18:41:54;7.00;;;2.38;;
59109;SDS011;44895;47.438;18.978;2023-09-19T18:44:58;4.43;;;1.85;;
59109;SDS011;44895;47.438;18.978;2023-09-19T18:48:04;4.85;;;2.15;;
59109;SDS011;44895;47.438;18.978;2023-09-19T18:51:09;5.68;;;2.20;;
59109;SDS011;44895;47.438;18.978;2023-09-19T18:54:17;5.63;;;2.25;;
59109;SDS011;44895;47.438;18.978;2023-09-19T18:57:23;4.82;;;1.45;;
59109;SDS011;44895;47.438;18.978;2023-09-19T19:00:30;6.80;;;2.30;;
59109;SDS011;44895;47.438;18.978;2023-09-19T19:03:35;6.68;;;2.22;;
59109;SDS011;44895;47.438;18.978;2023-09-19T19:06:40;3.47;;;1.45;;